createdAt,value
2019-05-18T00:00:26.924Z,96.10
2019-05-18T00:02:54.908Z,95.70
2019-05-18T00:05:23.000Z,95.80
2019-05-18T00:07:51.007Z,95.90
2019-05-18T00:10:19.542Z,95.80
2019-05-18T00:12:47.499Z,95.90
2019-05-18T00:15:15.576Z,96.10
2019-05-18T00:17:43.404Z,96.30
2019-05-18T00:20:11.742Z,95.70
2019-05-18T00:22:39.619Z,95.50
2019-05-18T00:25:09.502Z,95.50
2019-05-18T00:27:37.486Z,95.50
2019-05-18T00:30:06.084Z,95.50
2019-05-18T00:32:33.997Z,95.60
2019-05-18T00:35:03.898Z,95.60
2019-05-18T00:37:31.910Z,95.60
2019-05-18T00:40:00.528Z,95.60
2019-05-18T00:42:28.375Z,95.80
2019-05-18T00:44:57.418Z,95.80
2019-05-18T00:47:40.054Z,95.70
2019-05-18T00:49:54.940Z,95.20
2019-05-18T00:52:23.025Z,95.10
2019-05-18T00:54:51.059Z,95.20
2019-05-18T00:57:19.182Z,95.20
2019-05-18T00:59:47.434Z,95.70
2019-05-18T01:02:15.378Z,95.50
2019-05-18T01:04:43.176Z,95.80
2019-05-18T01:07:11.061Z,95.80
2019-05-18T01:09:39.615Z,95.70
2019-05-18T01:12:07.539Z,95.10
2019-05-18T01:14:35.332Z,95.50
2019-05-18T01:17:03.590Z,95.10
2019-05-18T01:19:31.594Z,95.40
2019-05-18T01:21:59.665Z,95.40
2019-05-18T01:24:27.744Z,95.00
2019-05-18T01:26:55.732Z,95.00
2019-05-18T01:29:24.915Z,95.10
2019-05-18T01:31:53.024Z,95.20
2019-05-18T01:34:21.157Z,95.30
2019-05-18T01:36:49.147Z,95.30
2019-05-18T01:39:17.021Z,95.50
2019-05-18T01:41:44.980Z,95.30
2019-05-18T01:44:13.280Z,95.30
2019-05-18T01:46:43.652Z,95.10
2019-05-18T01:49:15.721Z,95.00
2019-05-18T01:51:44.051Z,94.70
2019-05-18T01:54:11.941Z,94.20
2019-05-18T01:56:39.984Z,94.20
2019-05-18T01:59:07.913Z,94.70
2019-05-18T02:01:35.893Z,95.40
2019-05-18T02:04:04.414Z,95.50
2019-05-18T02:06:32.197Z,95.30
2019-05-18T02:09:00.185Z,94.30
2019-05-18T02:11:28.154Z,94.70
2019-05-18T02:13:56.112Z,94.90
2019-05-18T02:16:25.661Z,94.60
2019-05-18T02:18:55.400Z,94.40
2019-05-18T02:21:23.287Z,94.50
2019-05-18T02:23:51.207Z,94.60
2019-05-18T02:26:18.998Z,94.70
2019-05-18T02:28:51.555Z,94.70
2019-05-18T02:31:22.241Z,94.90
2019-05-18T02:33:50.382Z,94.70
2019-05-18T02:36:18.734Z,94.50
2019-05-18T02:38:47.105Z,95.00
2019-05-18T02:41:16.448Z,95.10
2019-05-18T02:43:44.800Z,94.80
2019-05-18T02:46:13.218Z,95.00
2019-05-18T02:48:49.727Z,94.90
2019-05-18T02:51:12.052Z,95.00
2019-05-18T02:53:49.978Z,94.80
2019-05-18T02:56:19.812Z,95.10
2019-05-18T02:58:47.629Z,95.10
2019-05-18T03:01:17.264Z,94.50
2019-05-18T03:03:45.327Z,93.70
2019-05-18T03:06:13.999Z,93.70
2019-05-18T03:08:51.628Z,93.80
2019-05-18T03:11:19.702Z,93.60
2019-05-18T03:13:47.733Z,93.80
2019-05-18T03:16:15.698Z,94.30
2019-05-18T03:18:43.712Z,94.50
2019-05-18T03:21:11.949Z,94.70
2019-05-18T03:23:39.706Z,94.80
2019-05-18T03:26:07.698Z,94.90
2019-05-18T03:28:36.037Z,95.00
2019-05-18T03:31:03.983Z,95.10
2019-05-18T03:33:32.241Z,95.10
2019-05-18T03:36:01.530Z,95.20
2019-05-18T03:38:29.985Z,95.20
2019-05-18T03:40:57.989Z,95.20
2019-05-18T03:43:26.023Z,95.20
2019-05-18T03:45:54.543Z,95.30
2019-05-18T03:48:22.518Z,95.30
2019-05-18T03:50:50.380Z,95.30
2019-05-18T03:53:18.603Z,95.30
2019-05-18T03:55:46.553Z,95.30
2019-05-18T03:58:14.843Z,95.30
2019-05-18T04:00:43.411Z,95.30
2019-05-18T04:03:11.511Z,95.30
2019-05-18T04:05:39.797Z,95.40
2019-05-18T04:08:07.722Z,95.80
2019-05-18T04:10:35.653Z,95.90
2019-05-18T04:13:03.496Z,96.00
2019-05-18T04:15:31.289Z,96.00
2019-05-18T04:17:59.137Z,96.10
2019-05-18T04:20:28.305Z,96.10
2019-05-18T04:22:56.217Z,96.20
2019-05-18T04:25:24.046Z,96.30
2019-05-18T04:27:51.949Z,96.40
2019-05-18T04:30:20.067Z,96.50
2019-05-18T04:32:50.275Z,96.90
2019-05-18T04:35:20.889Z,97.10
2019-05-18T04:37:48.959Z,96.20
2019-05-18T04:40:37.853Z,96.20
2019-05-18T04:43:12.347Z,96.20
2019-05-18T04:45:44.151Z,96.50
2019-05-18T04:48:27.030Z,96.70
2019-05-18T04:50:56.472Z,96.30
2019-05-18T04:53:26.401Z,94.90
2019-05-18T04:55:54.087Z,93.10
2019-05-18T04:58:22.048Z,92.30
2019-05-18T05:00:49.812Z,92.70
2019-05-18T05:03:17.562Z,95.20
2019-05-18T05:05:55.836Z,95.90
2019-05-18T05:08:24.416Z,96.20
2019-05-18T05:10:52.070Z,97.00
2019-05-18T05:13:20.382Z,97.70
2019-05-18T05:15:54.105Z,97.70
2019-05-18T05:18:21.700Z,97.40
2019-05-18T05:20:49.310Z,97.40
2019-05-18T05:23:17.184Z,97.50
2019-05-18T05:25:44.984Z,97.40
2019-05-18T05:28:12.714Z,97.20
2019-05-18T05:30:40.810Z,96.90
2019-05-18T05:33:12.282Z,97.00
2019-05-18T05:35:42.778Z,96.90
2019-05-18T05:38:10.750Z,96.90
2019-05-18T05:40:38.875Z,96.50
2019-05-18T05:43:06.661Z,96.70
2019-05-18T05:45:34.601Z,96.80
2019-05-18T05:48:03.325Z,96.60
2019-05-18T05:50:36.329Z,96.50
2019-05-18T05:53:03.809Z,96.50
2019-05-18T05:55:31.711Z,96.50
2019-05-18T05:57:59.478Z,96.70
2019-05-18T06:00:29.885Z,96.60
2019-05-18T06:02:59.317Z,96.70
2019-05-18T06:05:37.267Z,96.40
2019-05-18T06:07:59.705Z,96.40
2019-05-18T06:10:27.498Z,96.30
2019-05-18T06:12:55.266Z,96.40
2019-05-18T06:15:23.098Z,96.10
2019-05-18T06:17:51.186Z,96.00
2019-05-18T06:20:18.917Z,95.90
2019-05-18T06:22:46.627Z,95.80
2019-05-18T06:25:15.166Z,95.70
2019-05-18T06:27:42.900Z,95.70
2019-05-18T06:30:10.802Z,95.70
2019-05-18T06:32:38.786Z,95.30
2019-05-18T06:35:07.117Z,95.30
2019-05-18T06:37:35.002Z,95.30
2019-05-18T06:40:02.977Z,95.30
2019-05-18T06:42:32.693Z,95.30
2019-05-18T06:45:09.307Z,95.30
2019-05-18T06:47:36.955Z,95.40
2019-05-18T06:50:04.588Z,95.30
2019-05-18T06:52:32.537Z,95.40
2019-05-18T06:55:00.801Z,95.50
2019-05-18T06:57:29.748Z,95.40
2019-05-18T06:59:58.569Z,95.40
2019-05-18T07:02:26.295Z,95.10
2019-05-18T07:04:53.935Z,95.00
2019-05-18T07:07:21.672Z,94.70
2019-05-18T07:09:49.506Z,94.30
2019-05-18T07:12:17.152Z,94.90
2019-05-18T07:14:44.841Z,95.20
2019-05-18T07:17:12.869Z,95.40
2019-05-18T07:19:40.580Z,95.40
2019-05-18T07:22:08.273Z,95.70
2019-05-18T07:24:35.946Z,95.10
2019-05-18T07:27:04.023Z,95.20
2019-05-18T07:29:31.753Z,96.50
2019-05-18T07:31:59.845Z,96.80
2019-05-18T07:34:27.663Z,96.70
2019-05-18T07:36:55.911Z,96.70
2019-05-18T07:39:23.849Z,96.50
2019-05-18T07:41:51.512Z,96.60
2019-05-18T07:44:19.285Z,96.30
2019-05-18T07:46:47.463Z,96.40
2019-05-18T07:49:15.186Z,96.20
2019-05-18T07:51:42.849Z,95.90
2019-05-18T07:54:10.565Z,95.40
2019-05-18T07:56:39.711Z,95.60
2019-05-18T07:59:08.593Z,95.40
2019-05-18T08:01:36.642Z,95.30
2019-05-18T08:04:07.734Z,95.10
2019-05-18T08:06:35.464Z,95.20
2019-05-18T08:09:04.768Z,95.30
2019-05-18T08:11:32.384Z,95.10
2019-05-18T08:14:00.101Z,94.80
2019-05-18T08:16:27.692Z,94.70
2019-05-18T08:18:58.029Z,94.50
2019-05-18T08:21:24.794Z,94.30
2019-05-18T08:23:52.475Z,94.30
2019-05-18T08:26:20.107Z,93.90
2019-05-18T08:28:47.674Z,93.60
2019-05-18T08:31:15.377Z,93.50
2019-05-18T08:33:42.977Z,93.40
2019-05-18T08:36:10.568Z,92.70
2019-05-18T08:38:38.059Z,93.50
2019-05-18T08:41:05.605Z,93.80
2019-05-18T08:43:33.252Z,94.00
2019-05-18T08:46:00.836Z,93.80
2019-05-18T08:48:28.505Z,94.10
2019-05-18T08:50:56.166Z,94.20
2019-05-18T08:53:23.801Z,94.10
2019-05-18T08:55:51.790Z,92.30
2019-05-18T08:58:19.636Z,94.80
2019-05-18T09:00:47.317Z,94.80
2019-05-18T09:03:15.260Z,95.80
2019-05-18T09:05:42.917Z,94.90
2019-05-18T09:08:10.513Z,94.70
2019-05-18T09:10:38.008Z,95.00
2019-05-18T09:13:05.528Z,97.20
2019-05-18T09:15:33.140Z,94.00
2019-05-18T09:18:04.995Z,95.40
2019-05-18T09:20:32.866Z,92.90
2019-05-18T09:23:00.488Z,93.40
2019-05-18T09:25:28.062Z,88.90
2019-05-18T09:27:55.707Z,87.00
2019-05-18T09:30:23.245Z,90.70
2019-05-18T09:32:51.096Z,93.30
2019-05-18T09:35:19.215Z,91.60
2019-05-18T09:37:46.875Z,92.00
2019-05-18T09:40:15.114Z,93.60
2019-05-18T09:42:42.943Z,93.50
2019-05-18T09:45:11.722Z,88.50
2019-05-18T09:47:39.352Z,86.80
2019-05-18T09:50:07.945Z,91.80
2019-05-18T09:52:44.835Z,90.20
2019-05-18T09:55:06.257Z,79.80
2019-05-18T09:57:34.812Z,85.90
2019-05-18T10:00:14.018Z,79.00
2019-05-18T10:02:44.149Z,81.30
2019-05-18T10:05:14.385Z,80.70
2019-05-18T10:07:42.776Z,80.20
2019-05-18T10:10:10.966Z,81.60
2019-05-18T10:12:38.605Z,83.10
2019-05-18T10:15:06.658Z,83.00
2019-05-18T10:17:34.287Z,85.20
2019-05-18T10:20:02.283Z,88.40
2019-05-18T10:22:30.034Z,82.90
2019-05-18T10:24:57.977Z,81.30
2019-05-18T10:27:25.808Z,83.20
2019-05-18T10:29:53.660Z,83.20
2019-05-18T10:32:21.571Z,80.60
2019-05-18T10:34:49.330Z,78.40
2019-05-18T10:37:17.469Z,77.50
2019-05-18T10:39:45.588Z,74.90
2019-05-18T10:42:13.451Z,77.60
2019-05-18T10:44:41.770Z,77.20
2019-05-18T10:47:09.528Z,80.90
2019-05-18T10:49:37.186Z,78.70
2019-05-18T10:52:05.061Z,77.70
2019-05-18T10:54:32.765Z,76.50
2019-05-18T10:57:04.206Z,76.00
2019-05-18T10:59:31.933Z,74.30
2019-05-18T11:01:59.567Z,75.80
2019-05-18T11:04:27.244Z,73.30
2019-05-18T11:07:04.773Z,73.00
2019-05-18T11:09:32.553Z,75.20
2019-05-18T11:12:00.276Z,74.00
2019-05-18T11:14:28.267Z,73.60
2019-05-18T11:16:56.203Z,74.10
2019-05-18T11:19:23.998Z,72.60
2019-05-18T11:21:51.889Z,73.20
2019-05-18T11:24:19.868Z,70.80
2019-05-18T11:26:53.663Z,70.10
2019-05-18T11:29:23.245Z,71.00
2019-05-18T11:31:51.187Z,71.20
2019-05-18T11:34:19.294Z,72.00
2019-05-18T11:36:46.850Z,72.50
2019-05-18T11:39:23.601Z,72.50
2019-05-18T11:41:47.829Z,70.20
2019-05-18T11:44:15.727Z,72.30
2019-05-18T11:46:44.806Z,71.30
2019-05-18T11:49:15.186Z,71.70
2019-05-18T11:51:42.830Z,71.10
2019-05-18T11:54:10.703Z,71.20
2019-05-18T11:56:38.677Z,71.70
2019-05-18T11:59:06.298Z,71.80
2019-05-18T12:01:34.342Z,72.30
2019-05-18T12:04:02.248Z,70.80
2019-05-18T12:06:29.996Z,70.10
2019-05-18T12:08:58.753Z,70.80
2019-05-18T12:11:26.482Z,71.00
2019-05-18T12:13:54.131Z,71.10
2019-05-18T12:16:21.910Z,73.50
2019-05-18T12:18:49.988Z,70.20
2019-05-18T12:21:17.776Z,68.90
2019-05-18T12:23:45.574Z,68.10
2019-05-18T12:26:13.245Z,67.80
2019-05-18T12:28:41.011Z,68.30
2019-05-18T12:31:08.714Z,66.60
2019-05-18T12:33:36.713Z,66.10
2019-05-18T12:36:06.138Z,66.10
2019-05-18T12:38:33.870Z,66.00
2019-05-18T12:41:03.011Z,65.80
2019-05-18T12:43:30.745Z,66.20
2019-05-18T12:45:58.513Z,65.20
2019-05-18T12:48:26.320Z,65.90
2019-05-18T12:50:54.004Z,65.90
2019-05-18T12:53:21.802Z,65.20
2019-05-18T12:55:49.545Z,64.60
2019-05-18T12:58:17.298Z,63.70
2019-05-18T13:00:44.944Z,63.20
2019-05-18T13:03:12.752Z,63.30
2019-05-18T13:05:40.757Z,63.10
2019-05-18T13:08:08.509Z,62.80
2019-05-18T13:10:36.366Z,61.40
2019-05-18T13:13:04.074Z,61.30
2019-05-18T13:15:31.870Z,60.80
2019-05-18T13:17:59.506Z,60.70
2019-05-18T13:20:27.078Z,60.70
2019-05-18T13:22:54.858Z,61.30
2019-05-18T13:25:22.869Z,61.60
2019-05-18T13:27:50.785Z,62.00
2019-05-18T13:30:19.845Z,62.40
2019-05-18T13:32:47.911Z,62.00
2019-05-18T13:35:17.858Z,62.90
2019-05-18T13:37:45.786Z,62.80
2019-05-18T13:40:14.141Z,64.50
2019-05-18T13:42:41.789Z,63.80
2019-05-18T13:45:09.860Z,63.70
2019-05-18T13:47:37.704Z,63.60
2019-05-18T13:50:05.987Z,62.60
2019-05-18T13:52:33.893Z,62.20
2019-05-18T13:55:04.468Z,62.30
2019-05-18T13:57:31.161Z,62.30
2019-05-18T13:59:58.867Z,61.80
2019-05-18T14:02:26.719Z,61.30
2019-05-18T14:04:54.647Z,61.10
2019-05-18T14:07:23.454Z,59.50
2019-05-18T14:09:51.218Z,58.90
2019-05-18T14:12:18.851Z,58.40
2019-05-18T14:14:46.407Z,57.60
2019-05-18T14:17:14.101Z,57.90
2019-05-18T14:19:41.772Z,56.30
2019-05-18T14:22:09.957Z,56.20
2019-05-18T14:24:37.572Z,54.20
2019-05-18T14:27:05.223Z,54.40
2019-05-18T14:29:32.908Z,56.20
2019-05-18T14:32:02.003Z,56.50
2019-05-18T14:34:29.746Z,55.40
2019-05-18T14:36:58.062Z,51.70
2019-05-18T14:39:25.794Z,51.70
2019-05-18T14:41:53.660Z,52.90
2019-05-18T14:44:21.952Z,51.90
2019-05-18T14:46:52.409Z,51.60
2019-05-18T14:49:20.288Z,51.70
2019-05-18T14:51:49.321Z,55.00
2019-05-18T14:54:17.268Z,58.10
2019-05-18T14:56:45.471Z,58.30
2019-05-18T14:59:13.421Z,59.20
2019-05-18T15:01:41.282Z,59.60
2019-05-18T15:04:09.129Z,59.00
2019-05-18T15:06:37.022Z,58.90
2019-05-18T15:09:05.965Z,56.00
2019-05-18T15:11:34.238Z,55.00
2019-05-18T15:14:02.496Z,53.60
2019-05-18T15:16:30.371Z,55.00
2019-05-18T15:19:00.271Z,56.00
2019-05-18T15:21:28.138Z,56.80
2019-05-18T15:23:56.044Z,56.30
2019-05-18T15:26:23.996Z,54.50
2019-05-18T15:28:51.966Z,54.00
2019-05-18T15:31:19.788Z,52.10
2019-05-18T15:33:53.814Z,51.10
2019-05-18T15:36:21.865Z,53.30
2019-05-18T15:38:50.526Z,55.60
2019-05-18T15:41:18.421Z,56.90
2019-05-18T15:43:46.346Z,58.00
2019-05-18T15:46:14.632Z,60.00
2019-05-18T15:48:52.066Z,60.30
2019-05-18T15:51:24.518Z,60.90
2019-05-18T15:54:01.099Z,61.00
2019-05-18T15:56:30.997Z,60.70
2019-05-18T15:58:58.931Z,61.30
2019-05-18T16:01:29.224Z,61.30
2019-05-18T16:03:57.005Z,62.00
2019-05-18T16:06:27.966Z,62.30
2019-05-18T16:09:01.738Z,62.70
2019-05-18T16:11:29.796Z,63.40
2019-05-18T16:13:57.839Z,63.10
2019-05-18T16:16:25.765Z,63.40
2019-05-18T16:18:56.842Z,63.70
2019-05-18T16:21:29.485Z,63.20
2019-05-18T16:23:59.949Z,63.20
2019-05-18T16:26:32.144Z,63.30
2019-05-18T16:29:00.873Z,63.60
2019-05-18T16:31:34.726Z,63.50
2019-05-18T16:34:03.449Z,64.00
2019-05-18T16:36:33.606Z,64.50
2019-05-18T16:39:06.316Z,64.80
2019-05-18T16:41:35.001Z,65.10
2019-05-18T16:44:02.742Z,65.40
2019-05-18T16:46:30.917Z,65.20
2019-05-18T16:48:58.678Z,65.20
2019-05-18T16:51:30.597Z,65.20
2019-05-18T16:54:18.742Z,65.40
2019-05-18T16:56:47.080Z,65.40
2019-05-18T16:59:17.915Z,65.70
2019-05-18T17:01:46.993Z,65.70
2019-05-18T17:04:15.937Z,66.10
2019-05-18T17:06:52.907Z,66.50
2019-05-18T17:09:21.487Z,66.30
2019-05-18T17:11:52.862Z,66.50
2019-05-18T17:16:50.874Z,67.10
2019-05-18T17:19:18.890Z,67.00
2019-05-18T17:22:03.507Z,67.50
2019-05-18T17:24:32.941Z,67.80
2019-05-18T17:27:00.977Z,68.30
2019-05-18T17:29:28.987Z,68.90
2019-05-18T17:31:57.317Z,69.50
2019-05-18T17:34:25.320Z,71.10
2019-05-18T17:36:57.474Z,72.30
2019-05-18T17:39:27.692Z,73.10
2019-05-18T17:41:55.810Z,75.30
2019-05-18T17:44:23.879Z,75.70
2019-05-18T17:46:54.208Z,75.10
2019-05-18T17:49:26.890Z,75.30
2019-05-18T17:52:11.216Z,76.20
2019-05-18T17:54:39.796Z,76.60
2019-05-18T17:57:09.270Z,77.90
2019-05-18T17:59:43.925Z,78.30
2019-05-18T18:02:12.556Z,79.60
2019-05-18T18:04:40.405Z,79.70
2019-05-18T18:07:15.026Z,80.40
2019-05-18T18:09:43.282Z,81.20
2019-05-18T18:12:15.862Z,81.90
2019-05-18T18:14:44.341Z,82.80
2019-05-18T18:17:13.746Z,84.20
2019-05-18T18:19:44.737Z,85.00
2019-05-18T18:22:14.923Z,86.80
2019-05-18T18:24:49.207Z,88.80
2019-05-18T18:27:25.298Z,90.60
2019-05-18T18:29:51.997Z,91.60
2019-05-18T18:32:27.710Z,91.70
2019-05-18T18:34:55.853Z,91.80
2019-05-18T18:37:31.081Z,92.20
2019-05-18T18:40:03.857Z,92.70
2019-05-18T18:42:38.153Z,93.30
2019-05-18T18:45:11.721Z,93.90
2019-05-18T18:47:49.082Z,94.40
2019-05-18T18:50:17.725Z,95.00
2019-05-18T18:52:52.442Z,95.50
2019-05-18T18:55:28.700Z,95.60
2019-05-18T18:58:05.447Z,95.90
2019-05-18T19:00:42.894Z,96.40
2019-05-18T19:03:13.286Z,96.90
2019-05-18T19:05:45.845Z,96.90
2019-05-18T19:08:20.361Z,97.10
2019-05-18T19:10:50.423Z,97.50
2019-05-18T19:13:20.449Z,97.60
2019-05-18T19:15:55.747Z,97.70
2019-05-18T19:18:27.734Z,98.30
2019-05-18T19:20:55.973Z,98.10
2019-05-18T19:23:31.569Z,98.20
2019-05-18T19:25:57.103Z,97.50
2019-05-18T19:28:25.346Z,96.60
2019-05-18T19:30:56.600Z,96.00
2019-05-18T19:33:24.749Z,95.70
2019-05-18T19:35:52.932Z,96.00
2019-05-18T19:38:20.963Z,97.00
2019-05-18T19:40:49.616Z,97.20
2019-05-18T19:43:17.804Z,97.10
2019-05-18T19:45:46.144Z,96.70
2019-05-18T19:48:36.880Z,96.30
2019-05-18T19:51:08.646Z,96.90
2019-05-18T19:53:41.806Z,97.60
2019-05-18T19:56:13.419Z,97.60
2019-05-18T19:58:44.833Z,97.60
2019-05-18T20:01:13.146Z,97.20
2019-05-18T20:03:41.432Z,97.70
2019-05-18T20:06:11.297Z,98.30
2019-05-18T20:08:40.153Z,99.10
2019-05-18T20:11:08.737Z,98.60
2019-05-18T20:13:38.879Z,98.60
2019-05-18T20:16:06.992Z,98.50
2019-05-18T20:18:37.400Z,99.40
2019-05-18T20:21:06.386Z,99.20
2019-05-18T20:23:34.623Z,99.20
2019-05-18T20:26:03.333Z,99.30
2019-05-18T20:28:31.872Z,99.10
2019-05-18T20:31:00.109Z,98.90
2019-05-18T20:33:28.793Z,98.80
2019-05-18T20:35:57.769Z,98.80
2019-05-18T20:38:25.734Z,98.10
2019-05-18T20:40:53.598Z,98.70
2019-05-18T20:43:21.526Z,98.50
2019-05-18T20:45:49.337Z,97.70
2019-05-18T20:48:22.229Z,96.70
2019-05-18T20:50:50.385Z,97.00
2019-05-18T20:53:21.478Z,97.40
2019-05-18T20:55:53.105Z,97.50
2019-05-18T20:58:39.443Z,97.20
2019-05-18T21:01:24.608Z,97.00
2019-05-18T21:03:55.176Z,96.50
2019-05-18T21:06:23.914Z,96.10
2019-05-18T21:08:52.668Z,96.00
2019-05-18T21:11:20.837Z,96.00
2019-05-18T21:14:07.689Z,96.00
2019-05-18T21:16:36.015Z,95.80
2019-05-18T21:19:11.116Z,95.90
2019-05-18T21:21:38.916Z,95.90
2019-05-18T21:24:07.436Z,96.40
2019-05-18T21:26:37.814Z,96.80
2019-05-18T21:29:05.916Z,96.70
2019-05-18T21:31:34.571Z,96.30
2019-05-18T21:34:02.742Z,96.70
2019-05-18T21:36:31.470Z,96.80
2019-05-18T21:38:59.711Z,96.60
2019-05-18T21:41:30.368Z,96.80
2019-05-18T21:44:01.114Z,97.00
2019-05-18T21:46:30.957Z,97.10
2019-05-18T21:48:58.848Z,97.40
2019-05-18T21:51:26.756Z,97.70
2019-05-18T21:53:54.520Z,97.70
2019-05-18T21:56:27.169Z,98.00
2019-05-18T21:59:10.157Z,98.10
2019-05-18T22:01:25.196Z,97.20
2019-05-18T22:04:00.095Z,95.90
2019-05-18T22:07:02.792Z,94.50
2019-05-18T22:09:32.495Z,93.80
2019-05-18T22:14:38.153Z,91.50
2019-05-18T22:17:16.910Z,91.10
2019-05-18T22:20:02.691Z,91.10
2019-05-18T22:22:33.805Z,90.30
2019-05-18T22:25:04.437Z,90.10
2019-05-18T22:32:58.068Z,89.10
2019-05-18T22:35:23.290Z,89.10
2019-05-18T22:37:51.077Z,88.90
2019-05-18T22:40:39.820Z,87.90
2019-05-18T22:43:08.231Z,87.90
2019-05-18T22:45:37.601Z,87.10
2019-05-18T22:48:08.155Z,87.80
2019-05-18T22:50:36.106Z,87.50
2019-05-18T22:53:13.356Z,87.60
2019-05-18T22:55:43.602Z,88.50
2019-05-18T22:58:11.598Z,88.90
2019-05-18T23:00:39.413Z,89.90
2019-05-18T23:03:07.954Z,90.40
2019-05-18T23:05:38.425Z,90.70
2019-05-18T23:11:10.462Z,90.50
2019-05-18T23:13:39.035Z,90.40
2019-05-18T23:16:08.405Z,90.80
2019-05-18T23:18:36.545Z,91.40
2019-05-18T23:21:25.323Z,91.70
2019-05-18T23:23:54.211Z,92.30
2019-05-18T23:26:22.291Z,93.00
2019-05-18T23:28:50.057Z,92.60
2019-05-18T23:31:18.080Z,93.00
2019-05-18T23:33:45.992Z,93.60
2019-05-18T23:36:49.520Z,93.60
2019-05-18T23:39:22.378Z,93.10
2019-05-18T23:41:51.619Z,92.70
2019-05-18T23:44:30.469Z,92.40
2019-05-18T23:47:07.834Z,92.30
2019-05-18T23:49:35.758Z,92.40
2019-05-18T23:52:05.167Z,92.40
2019-05-18T23:54:44.926Z,92.40
2019-05-18T23:57:26.706Z,92.70
